createdAt,value
2018-08-06T00:00:03.118Z,18.1
2018-08-06T00:05:02.883Z,18.2
2018-08-06T00:10:02.603Z,18.2
2018-08-06T00:15:03.031Z,18.1
2018-08-06T00:20:02.638Z,18.1
2018-08-06T00:25:03.114Z,17.8
2018-08-06T00:30:02.498Z,17.7
2018-08-06T00:35:03.077Z,17.7
2018-08-06T00:40:02.544Z,17.7
2018-08-06T00:45:02.998Z,17.5
2018-08-06T00:50:02.513Z,17.5
2018-08-06T00:55:03.130Z,17.5
2018-08-06T01:00:02.519Z,17.3
2018-08-06T01:05:03.004Z,17.3
2018-08-06T01:10:02.730Z,17.2
2018-08-06T01:15:03.225Z,17.2
2018-08-06T01:20:02.682Z,17.2
2018-08-06T01:25:03.151Z,17.1
2018-08-06T01:30:02.567Z,17.1
2018-08-06T01:35:03.077Z,17.1
2018-08-06T01:40:02.568Z,17.0
2018-08-06T01:45:02.991Z,16.7
2018-08-06T01:50:02.436Z,16.7
2018-08-06T01:55:02.873Z,16.7
2018-08-06T02:00:02.258Z,16.6
2018-08-06T02:05:02.743Z,16.3
2018-08-06T02:10:03.015Z,16.3
2018-08-06T02:15:02.461Z,16.3
2018-08-06T02:20:02.985Z,16.2
2018-08-06T02:25:02.429Z,16.2
2018-08-06T02:30:02.864Z,16.2
2018-08-06T02:35:02.299Z,16.2
2018-08-06T02:40:02.814Z,16.2
2018-08-06T02:45:03.251Z,16.2
2018-08-06T02:50:02.727Z,16.0
2018-08-06T02:55:03.154Z,16.0
2018-08-06T03:00:02.670Z,16.0
2018-08-06T03:05:02.260Z,16.0
2018-08-06T03:10:02.817Z,16.0
2018-08-06T03:15:02.688Z,16.0
2018-08-06T03:20:03.155Z,16.0
2018-08-06T03:25:02.641Z,15.8
2018-08-06T03:30:03.054Z,15.8
2018-08-06T03:35:02.461Z,15.8
2018-08-06T03:40:03.009Z,15.8
2018-08-06T03:45:02.541Z,15.8
2018-08-06T03:50:02.975Z,15.8
2018-08-06T03:55:02.409Z,15.8
2018-08-06T04:00:02.882Z,15.8
2018-08-06T04:05:02.370Z,15.8
2018-08-06T04:10:02.906Z,15.6
2018-08-06T04:15:02.330Z,15.5
2018-08-06T04:20:02.777Z,15.3
2018-08-06T04:25:03.205Z,15.3
2018-08-06T04:30:03.085Z,15.3
2018-08-06T04:35:02.507Z,15.3
2018-08-06T04:40:03.001Z,15.5
2018-08-06T04:45:02.442Z,15.3
2018-08-06T04:50:02.860Z,15.5
2018-08-06T04:55:03.239Z,15.6
2018-08-06T05:00:02.732Z,15.5
2018-08-06T05:05:03.205Z,15.8
2018-08-06T05:10:02.657Z,15.8
2018-08-06T05:15:03.091Z,16.0
2018-08-06T05:20:02.508Z,16.2
2018-08-06T05:25:02.912Z,16.6
2018-08-06T05:30:02.348Z,16.6
2018-08-06T05:35:02.969Z,16.6
2018-08-06T05:40:02.558Z,16.7
2018-08-06T05:45:02.513Z,17.1
2018-08-06T05:50:03.145Z,17.3
2018-08-06T05:55:02.717Z,17.5
2018-08-06T06:00:02.661Z,17.8
2018-08-06T06:05:02.936Z,18.1
2018-08-06T06:10:02.497Z,18.2
2018-08-06T06:15:02.900Z,18.6
2018-08-06T06:20:02.382Z,18.8
2018-08-06T06:25:02.832Z,19.0
2018-08-06T06:30:02.238Z,19.1
2018-08-06T06:35:02.748Z,19.3
2018-08-06T06:40:03.346Z,20.0
2018-08-06T06:45:02.770Z,20.2
2018-08-06T06:50:03.239Z,20.3
2018-08-06T06:55:02.688Z,20.7
2018-08-06T07:00:03.256Z,21.0
2018-08-06T07:05:03.063Z,21.2
2018-08-06T07:10:02.568Z,21.6
2018-08-06T07:15:03.090Z,21.7
2018-08-06T07:20:02.481Z,22.0
2018-08-06T07:25:03.055Z,22.3
2018-08-06T07:30:02.493Z,22.6
2018-08-06T07:35:02.905Z,23.0
2018-08-06T07:40:02.424Z,23.2
2018-08-06T07:45:03.298Z,23.6
2018-08-06T07:50:02.732Z,23.8
2018-08-06T07:55:03.244Z,24.2
2018-08-06T08:00:02.745Z,24.3
2018-08-06T08:05:03.158Z,25.1
2018-08-06T08:10:02.612Z,25.6
2018-08-06T08:15:03.089Z,26.2
2018-08-06T08:20:02.548Z,26.2
2018-08-06T08:25:02.691Z,27.2
2018-08-06T08:30:03.095Z,28.5
2018-08-06T08:35:02.638Z,27.7
2018-08-06T08:40:03.198Z,28.1
2018-08-06T08:45:02.651Z,28.3
2018-08-06T08:50:03.101Z,30.2
2018-08-06T08:55:02.510Z,30.3
2018-08-06T09:00:02.886Z,30.3
2018-08-06T09:05:02.353Z,29.7
2018-08-06T09:10:02.938Z,30.6
2018-08-06T09:15:02.384Z,30.1
2018-08-06T09:20:02.918Z,31.1
2018-08-06T09:25:02.330Z,31.2
2018-08-06T09:30:02.777Z,30.7
2018-08-06T09:35:03.224Z,31.2
2018-08-06T09:40:02.713Z,30.7
2018-08-06T09:45:03.211Z,30.3
2018-08-06T09:50:02.663Z,29.7
2018-08-06T09:55:03.040Z,31.8
2018-08-06T10:00:02.435Z,31.0
2018-08-06T10:05:03.195Z,31.1
2018-08-06T10:10:02.642Z,31.7
2018-08-06T10:15:03.071Z,31.6
2018-08-06T10:20:02.470Z,32.4
2018-08-06T10:25:02.847Z,32.0
2018-08-06T10:30:03.238Z,32.0
2018-08-06T10:35:02.789Z,33.5
2018-08-06T10:40:03.383Z,33.4
2018-08-06T10:45:02.858Z,32.7
2018-08-06T10:50:02.381Z,32.2
2018-08-06T10:55:02.840Z,31.7
2018-08-06T11:00:03.235Z,33.2
2018-08-06T11:05:02.871Z,32.4
2018-08-06T11:10:02.322Z,33.5
2018-08-06T11:15:02.834Z,33.5
2018-08-06T11:20:03.259Z,33.4
2018-08-06T11:25:02.679Z,32.2
2018-08-06T11:30:03.124Z,33.2
2018-08-06T11:35:02.646Z,33.2
2018-08-06T11:40:03.145Z,32.9
2018-08-06T11:45:02.600Z,33.2
2018-08-06T11:50:03.021Z,34.2
2018-08-06T11:55:02.476Z,33.4
2018-08-06T12:00:02.928Z,34.9
2018-08-06T12:05:02.339Z,33.2
2018-08-06T12:10:02.821Z,33.7
2018-08-06T12:15:03.270Z,34.5
2018-08-06T12:20:02.964Z,34.0
2018-08-06T12:25:02.463Z,34.2
2018-08-06T12:30:02.871Z,33.7
2018-08-06T12:35:02.397Z,33.4
2018-08-06T12:40:02.959Z,32.7
2018-08-06T12:45:02.393Z,34.7
2018-08-06T12:50:02.933Z,35.0
2018-08-06T12:55:02.328Z,34.0
2018-08-06T13:00:02.736Z,33.9
2018-08-06T13:05:02.400Z,34.4
2018-08-06T13:10:02.477Z,34.5
2018-08-06T13:15:02.928Z,34.5
2018-08-06T13:20:02.322Z,34.9
2018-08-06T13:25:02.785Z,35.5
2018-08-06T13:30:03.241Z,34.9
2018-08-06T13:35:02.658Z,35.0
2018-08-06T13:40:03.106Z,35.0
2018-08-06T13:45:02.525Z,35.0
2018-08-06T13:50:02.942Z,35.2
2018-08-06T13:55:02.333Z,35.4
2018-08-06T14:00:02.884Z,35.2
2018-08-06T14:05:02.721Z,35.7
2018-08-06T14:10:02.320Z,35.9
2018-08-06T14:15:02.825Z,35.9
2018-08-06T14:20:02.295Z,37.0
2018-08-06T14:25:02.791Z,36.5
2018-08-06T14:30:02.299Z,35.5
2018-08-06T14:35:02.810Z,36.2
2018-08-06T14:40:02.300Z,36.5
2018-08-06T14:45:02.704Z,37.0
2018-08-06T14:50:03.186Z,37.2
2018-08-06T14:55:02.589Z,35.7
2018-08-06T15:00:02.996Z,36.2
2018-08-06T15:05:02.384Z,37.2
2018-08-06T15:10:03.343Z,36.5
2018-08-06T15:15:02.842Z,35.9
2018-08-06T15:20:02.337Z,36.5
2018-08-06T15:25:02.821Z,34.7
2018-08-06T15:30:02.420Z,35.5
2018-08-06T15:35:03.058Z,37.0
2018-08-06T15:40:02.505Z,36.2
2018-08-06T15:45:02.944Z,36.4
2018-08-06T15:50:02.369Z,35.4
2018-08-06T15:55:02.901Z,35.7
2018-08-06T16:00:02.357Z,35.9
2018-08-06T16:05:02.829Z,35.7
2018-08-06T16:10:02.369Z,35.0
2018-08-06T16:15:02.954Z,37.2
2018-08-06T16:20:02.482Z,38.0
2018-08-06T16:25:03.072Z,36.5
2018-08-06T16:30:02.289Z,35.7
2018-08-06T16:35:02.854Z,35.4
2018-08-06T16:40:02.496Z,35.9
2018-08-06T16:45:02.943Z,36.2
2018-08-06T16:50:02.366Z,36.2
2018-08-06T16:55:02.772Z,35.4
2018-08-06T17:00:03.207Z,36.0
2018-08-06T17:05:02.660Z,36.2
2018-08-06T17:10:03.160Z,35.9
2018-08-06T17:15:02.477Z,35.4
2018-08-06T17:20:02.942Z,35.0
2018-08-06T17:25:02.385Z,34.5
2018-08-06T17:30:02.848Z,34.2
2018-08-06T17:35:02.555Z,33.9
2018-08-06T17:40:03.073Z,34.0
2018-08-06T17:45:02.499Z,33.2
2018-08-06T17:50:03.135Z,32.7
2018-08-06T17:55:02.737Z,33.2
2018-08-06T18:00:03.114Z,32.5
2018-08-06T18:05:02.552Z,32.2
2018-08-06T18:10:03.099Z,32.7
2018-08-06T18:15:02.494Z,31.8
2018-08-06T18:20:02.912Z,31.7
2018-08-06T18:25:02.375Z,31.3
2018-08-06T18:30:02.853Z,31.0
2018-08-06T18:35:02.287Z,30.5
2018-08-06T18:40:02.781Z,30.2
2018-08-06T18:45:02.297Z,29.7
2018-08-06T18:50:02.804Z,29.6
2018-08-06T18:55:03.223Z,29.5
2018-08-06T19:00:02.653Z,29.1
2018-08-06T19:05:03.099Z,28.7
2018-08-06T19:10:02.553Z,28.5
2018-08-06T19:15:02.990Z,28.1
2018-08-06T19:20:02.330Z,28.0
2018-08-06T19:25:02.787Z,27.7
2018-08-06T19:30:03.244Z,27.7
2018-08-06T19:35:02.679Z,27.5
2018-08-06T19:40:03.152Z,27.2
2018-08-06T19:45:02.561Z,27.1
2018-08-06T19:50:02.997Z,26.8
2018-08-06T19:55:02.493Z,26.7
2018-08-06T20:00:03.114Z,26.5
2018-08-06T20:05:02.576Z,26.2
2018-08-06T20:10:03.148Z,26.0
2018-08-06T20:15:02.656Z,25.8
2018-08-06T20:20:03.222Z,25.7
2018-08-06T20:25:02.649Z,25.6
2018-08-06T20:30:03.101Z,25.5
2018-08-06T20:35:02.634Z,25.3
2018-08-06T20:40:03.112Z,25.2
2018-08-06T20:45:02.471Z,25.2
2018-08-06T20:50:02.942Z,25.1
2018-08-06T20:55:02.411Z,24.8
2018-08-06T21:00:02.876Z,24.5
2018-08-06T21:05:02.292Z,24.5
2018-08-06T21:10:02.979Z,24.5
2018-08-06T21:15:02.609Z,24.3
2018-08-06T21:20:03.187Z,24.2
2018-08-06T21:25:02.621Z,24.2
2018-08-06T21:30:03.275Z,24.2
2018-08-06T21:35:02.663Z,24.0
2018-08-06T21:40:03.187Z,24.0
2018-08-06T21:45:02.651Z,23.8
2018-08-06T21:50:02.688Z,23.7
2018-08-06T21:55:03.163Z,23.7
2018-08-06T22:00:02.596Z,23.6
2018-08-06T22:05:03.041Z,23.3
2018-08-06T22:10:02.503Z,23.6
2018-08-06T22:15:02.997Z,23.6
2018-08-06T22:20:02.496Z,23.2
2018-08-06T22:25:02.984Z,23.2
2018-08-06T22:30:02.384Z,23.2
2018-08-06T22:35:02.838Z,23.1
2018-08-06T22:40:02.356Z,23.0
2018-08-06T22:45:02.914Z,22.7
2018-08-06T22:50:02.358Z,22.7
2018-08-06T22:55:02.771Z,22.7
2018-08-06T23:00:03.287Z,22.5
2018-08-06T23:05:02.909Z,22.6
2018-08-06T23:10:02.438Z,22.6
2018-08-06T23:15:02.833Z,22.5
2018-08-06T23:20:02.292Z,22.3
2018-08-06T23:25:02.775Z,22.3
2018-08-06T23:30:03.212Z,22.2
2018-08-06T23:35:02.724Z,22.1
2018-08-06T23:40:03.155Z,22.0
2018-08-06T23:45:02.605Z,22.0
2018-08-06T23:50:03.434Z,22.0
2018-08-06T23:55:02.915Z,21.8
